createdAt,value
2019-02-18T00:00:44.049Z,11.07
2019-02-18T00:01:29.346Z,10.70
2019-02-18T00:02:03.813Z,11.23
2019-02-18T00:02:38.243Z,10.43
2019-02-18T00:03:12.861Z,10.43
2019-02-18T00:03:47.645Z,11.00
2019-02-18T00:04:22.271Z,10.73
2019-02-18T00:04:56.885Z,11.20
2019-02-18T00:05:31.209Z,11.10
2019-02-18T00:06:05.814Z,10.90
2019-02-18T00:06:40.185Z,11.43
2019-02-18T00:07:14.990Z,11.40
2019-02-18T00:07:49.411Z,10.10
2019-02-18T00:08:24.608Z,10.13
2019-02-18T00:08:58.997Z,10.30
2019-02-18T00:09:33.344Z,10.23
2019-02-18T00:10:07.807Z,10.07
2019-02-18T00:10:42.713Z,10.47
2019-02-18T00:11:17.044Z,10.20
2019-02-18T00:11:51.446Z,11.20
2019-02-18T00:12:25.823Z,10.83
2019-02-18T00:13:00.751Z,11.00
2019-02-18T00:13:35.366Z,10.43
2019-02-18T00:14:09.762Z,9.57
2019-02-18T00:14:44.092Z,10.70
2019-02-18T00:15:18.483Z,10.00
2019-02-18T00:15:53.087Z,10.27
2019-02-18T00:16:27.414Z,9.47
2019-02-18T00:17:02.077Z,10.43
2019-02-18T00:17:36.452Z,11.23
2019-02-18T00:18:11.115Z,10.10
2019-02-18T00:18:45.474Z,11.07
2019-02-18T00:19:20.205Z,9.93
2019-02-18T00:19:54.608Z,9.97
2019-02-18T00:20:29.480Z,10.37
2019-02-18T00:21:03.818Z,10.33
2019-02-18T00:21:38.168Z,11.20
2019-02-18T00:22:12.566Z,10.23
2019-02-18T00:22:46.950Z,10.10
2019-02-18T00:23:21.562Z,9.90
2019-02-18T00:23:55.905Z,10.40
2019-02-18T00:24:30.251Z,10.80
2019-02-18T00:25:04.657Z,9.97
2019-02-18T00:25:39.261Z,10.20
2019-02-18T00:26:13.978Z,9.30
2019-02-18T00:26:48.392Z,9.80
2019-02-18T00:27:22.741Z,9.87
2019-02-18T00:27:57.071Z,9.60
2019-02-18T00:28:31.695Z,10.60
2019-02-18T00:29:06.304Z,9.60
2019-02-18T00:29:40.661Z,9.90
2019-02-18T00:30:15.011Z,10.23
2019-02-18T00:30:49.364Z,10.20
2019-02-18T00:31:24.022Z,10.33
2019-02-18T00:31:58.983Z,10.37
2019-02-18T00:32:33.320Z,10.23
2019-02-18T00:33:07.669Z,9.23
2019-02-18T00:33:42.000Z,10.53
2019-02-18T00:34:16.704Z,10.53
2019-02-18T00:34:51.058Z,10.20
2019-02-18T00:35:25.413Z,9.87
2019-02-18T00:36:00.011Z,10.43
2019-02-18T00:36:34.624Z,10.03
2019-02-18T00:37:09.249Z,10.17
2019-02-18T00:37:43.693Z,11.17
2019-02-18T00:38:18.144Z,10.63
2019-02-18T00:38:52.536Z,10.07
2019-02-18T00:39:26.897Z,10.33
2019-02-18T00:40:01.219Z,10.60
2019-02-18T00:40:35.637Z,10.47
2019-02-18T00:41:10.295Z,10.20
2019-02-18T00:41:44.653Z,10.57
2019-02-18T00:42:19.085Z,10.40
2019-02-18T00:42:53.706Z,10.37
2019-02-18T00:43:28.048Z,11.07
2019-02-18T00:44:02.662Z,9.70
2019-02-18T00:44:37.105Z,10.73
2019-02-18T00:45:11.628Z,10.63
2019-02-18T00:45:46.121Z,9.93
2019-02-18T00:46:20.764Z,10.53
2019-02-18T00:46:55.158Z,10.07
2019-02-18T00:47:29.499Z,10.03
2019-02-18T00:48:03.839Z,10.57
2019-02-18T00:48:38.453Z,10.60
2019-02-18T00:49:13.118Z,10.27
2019-02-18T00:49:47.736Z,10.40
2019-02-18T00:50:22.116Z,10.37
2019-02-18T00:50:56.880Z,10.60
2019-02-18T00:51:31.330Z,10.03
2019-02-18T00:52:05.719Z,10.17
2019-02-18T00:52:40.603Z,11.27
2019-02-18T00:53:15.019Z,10.47
2019-02-18T00:53:49.658Z,10.77
2019-02-18T00:54:24.263Z,11.23
2019-02-18T00:54:59.186Z,10.20
2019-02-18T00:55:33.546Z,10.57
2019-02-18T00:56:07.887Z,10.67
2019-02-18T00:56:42.234Z,10.37
2019-02-18T00:57:16.677Z,11.43
2019-02-18T00:57:51.061Z,10.67
2019-02-18T00:58:25.412Z,9.83
2019-02-18T00:59:00.053Z,11.33
2019-02-18T00:59:34.391Z,10.23
2019-02-18T01:00:09.953Z,11.33
2019-02-18T01:00:44.376Z,9.77
2019-02-18T01:01:18.746Z,10.33
2019-02-18T01:01:53.116Z,10.70
2019-02-18T01:02:27.493Z,11.23
2019-02-18T01:03:01.837Z,10.80
2019-02-18T01:03:36.194Z,10.53
2019-02-18T01:04:10.824Z,11.07
2019-02-18T01:04:45.158Z,10.70
2019-02-18T01:05:19.763Z,10.17
2019-02-18T01:05:54.213Z,10.43
2019-02-18T01:06:28.565Z,10.17
2019-02-18T01:07:02.959Z,10.73
2019-02-18T01:07:37.301Z,11.37
2019-02-18T01:08:11.922Z,11.30
2019-02-18T01:08:46.324Z,10.00
2019-02-18T01:09:20.978Z,10.23
2019-02-18T01:09:55.535Z,11.43
2019-02-18T01:10:29.871Z,11.37
2019-02-18T01:11:04.204Z,11.60
2019-02-18T01:11:38.818Z,11.83
2019-02-18T01:12:13.206Z,11.40
2019-02-18T01:12:47.567Z,11.57
2019-02-18T01:13:22.465Z,12.10
2019-02-18T01:13:57.092Z,12.23
2019-02-18T01:14:31.450Z,12.20
2019-02-18T01:15:06.555Z,13.20
2019-02-18T01:15:40.902Z,11.73
2019-02-18T01:16:15.620Z,11.60
2019-02-18T01:16:49.967Z,12.40
2019-02-18T01:17:24.373Z,12.80
2019-02-18T01:17:58.957Z,11.53
2019-02-18T01:18:33.331Z,12.10
2019-02-18T01:19:07.955Z,12.63
2019-02-18T01:19:42.306Z,12.87
2019-02-18T01:20:16.720Z,12.80
2019-02-18T01:20:51.382Z,13.40
2019-02-18T01:21:25.718Z,12.33
2019-02-18T01:22:00.145Z,12.67
2019-02-18T01:22:34.765Z,13.70
2019-02-18T01:23:09.129Z,12.80
2019-02-18T01:23:43.486Z,13.03
2019-02-18T01:24:17.873Z,13.07
2019-02-18T01:24:52.244Z,12.93
2019-02-18T01:25:26.963Z,13.20
2019-02-18T01:26:01.310Z,13.03
2019-02-18T01:26:36.374Z,12.40
2019-02-18T01:27:11.028Z,12.83
2019-02-18T01:27:45.717Z,13.17
2019-02-18T01:28:20.070Z,13.77
2019-02-18T01:28:54.677Z,12.47
2019-02-18T01:29:29.012Z,12.50
2019-02-18T01:30:03.448Z,12.13
2019-02-18T01:30:37.796Z,13.13
2019-02-18T01:31:12.131Z,11.83
2019-02-18T01:31:46.816Z,12.63
2019-02-18T01:32:21.212Z,12.00
2019-02-18T01:32:55.614Z,12.60
2019-02-18T01:33:29.966Z,13.00
2019-02-18T01:34:04.288Z,12.97
2019-02-18T01:34:38.943Z,13.63
2019-02-18T01:35:13.430Z,13.20
2019-02-18T01:35:47.819Z,13.20
2019-02-18T01:36:23.146Z,13.93
2019-02-18T01:36:57.629Z,13.33
2019-02-18T01:37:32.267Z,13.93
2019-02-18T01:38:06.596Z,12.07
2019-02-18T01:38:40.932Z,13.40
2019-02-18T01:39:15.539Z,13.20
2019-02-18T01:39:49.890Z,12.93
2019-02-18T01:40:24.812Z,13.00
2019-02-18T01:40:59.150Z,12.97
2019-02-18T01:41:33.491Z,13.03
2019-02-18T01:42:07.895Z,14.07
2019-02-18T01:42:42.518Z,12.90
2019-02-18T01:43:16.935Z,14.17
2019-02-18T01:43:51.566Z,13.67
2019-02-18T01:44:25.914Z,13.63
2019-02-18T01:45:00.846Z,13.53
2019-02-18T01:45:35.281Z,13.77
2019-02-18T01:46:09.927Z,13.70
2019-02-18T01:46:44.547Z,12.80
2019-02-18T01:47:18.925Z,13.60
2019-02-18T01:47:53.313Z,13.50
2019-02-18T01:48:27.922Z,13.07
2019-02-18T01:49:02.272Z,13.13
2019-02-18T01:49:36.860Z,12.03
2019-02-18T01:50:13.389Z,13.20
2019-02-18T01:50:47.841Z,11.73
2019-02-18T01:51:22.536Z,12.30
2019-02-18T01:51:56.902Z,11.13
2019-02-18T01:52:31.256Z,12.27
2019-02-18T01:53:05.928Z,11.53
2019-02-18T01:53:40.833Z,12.73
2019-02-18T01:54:15.188Z,12.60
2019-02-18T01:54:49.613Z,12.03
2019-02-18T01:55:23.973Z,11.80
2019-02-18T01:55:58.334Z,12.60
2019-02-18T01:56:32.971Z,13.27
2019-02-18T01:57:07.367Z,12.83
2019-02-18T01:57:42.057Z,13.03
2019-02-18T01:58:16.722Z,13.17
2019-02-18T01:58:51.083Z,12.57
2019-02-18T01:59:26.044Z,13.10
2019-02-18T02:00:00.374Z,12.90
2019-02-18T02:00:34.975Z,12.57
2019-02-18T02:01:09.316Z,12.40
2019-02-18T02:01:43.665Z,13.00
2019-02-18T02:02:18.093Z,12.87
2019-02-18T02:02:52.500Z,13.20
2019-02-18T02:03:26.853Z,12.60
2019-02-18T02:04:01.799Z,12.37
2019-02-18T02:04:36.142Z,11.93
2019-02-18T02:05:11.853Z,13.17
2019-02-18T02:05:46.547Z,13.43
2019-02-18T02:06:21.215Z,13.00
2019-02-18T02:06:55.650Z,11.93
2019-02-18T02:07:30.258Z,13.20
2019-02-18T02:08:04.736Z,12.43
2019-02-18T02:08:39.084Z,12.03
2019-02-18T02:09:15.122Z,11.77
2019-02-18T02:09:49.490Z,11.77
2019-02-18T02:10:23.846Z,12.27
2019-02-18T02:10:58.201Z,12.37
2019-02-18T02:11:32.549Z,12.17
2019-02-18T02:12:06.884Z,12.07
2019-02-18T02:12:41.224Z,10.73
2019-02-18T02:13:29.348Z,11.23
2019-02-18T02:14:03.694Z,10.87
2019-02-18T02:14:38.039Z,12.17
2019-02-18T02:15:15.788Z,10.83
2019-02-18T02:15:50.181Z,11.33
2019-02-18T02:16:24.822Z,10.97
2019-02-18T02:16:59.421Z,11.97
2019-02-18T02:17:33.758Z,12.50
2019-02-18T02:18:08.420Z,11.70
2019-02-18T02:18:42.765Z,11.63
2019-02-18T02:19:17.141Z,11.67
2019-02-18T02:19:51.520Z,11.63
2019-02-18T02:20:25.854Z,12.00
2019-02-18T02:21:00.462Z,12.30
2019-02-18T02:21:34.792Z,11.03
2019-02-18T02:22:09.162Z,12.30
2019-02-18T02:22:43.750Z,12.00
2019-02-18T02:23:18.159Z,11.57
2019-02-18T02:23:52.610Z,10.93
2019-02-18T02:24:26.950Z,11.80
2019-02-18T02:25:01.378Z,12.60
2019-02-18T02:25:36.054Z,12.73
2019-02-18T02:26:10.711Z,11.17
2019-02-18T02:26:45.294Z,12.07
2019-02-18T02:27:19.653Z,11.60
2019-02-18T02:27:54.267Z,11.90
2019-02-18T02:28:28.907Z,12.40
2019-02-18T02:29:03.265Z,11.30
2019-02-18T02:29:37.597Z,11.83
2019-02-18T02:30:12.474Z,11.57
2019-02-18T02:30:46.872Z,11.93
2019-02-18T02:31:21.804Z,12.30
2019-02-18T02:31:56.468Z,12.23
2019-02-18T02:32:31.080Z,11.40
2019-02-18T02:33:05.738Z,11.53
2019-02-18T02:33:40.086Z,11.67
2019-02-18T02:34:15.062Z,12.47
2019-02-18T02:34:49.703Z,11.80
2019-02-18T02:35:24.056Z,11.30
2019-02-18T02:35:59.000Z,11.77
2019-02-18T02:36:33.461Z,11.70
2019-02-18T02:37:07.814Z,11.07
2019-02-18T02:37:42.411Z,10.70
2019-02-18T02:38:17.163Z,11.77
2019-02-18T02:38:51.571Z,11.33
2019-02-18T02:39:25.972Z,11.53
2019-02-18T02:40:00.516Z,11.17
2019-02-18T02:40:34.815Z,11.93
2019-02-18T02:41:09.418Z,11.40
2019-02-18T02:41:44.008Z,12.60
2019-02-18T02:42:18.700Z,12.63
2019-02-18T02:42:53.072Z,11.63
2019-02-18T02:43:27.458Z,11.97
2019-02-18T02:44:02.054Z,11.50
2019-02-18T02:44:36.402Z,11.77
2019-02-18T02:45:11.280Z,12.20
2019-02-18T02:45:45.659Z,11.33
2019-02-18T02:46:20.078Z,12.30
2019-02-18T02:46:54.693Z,12.70
2019-02-18T02:47:29.014Z,13.40
2019-02-18T02:48:03.594Z,12.90
2019-02-18T02:48:37.981Z,12.17
2019-02-18T02:49:12.567Z,12.27
2019-02-18T02:49:47.263Z,12.20
2019-02-18T02:50:21.671Z,13.40
2019-02-18T02:50:56.016Z,13.20
2019-02-18T02:51:30.646Z,12.80
2019-02-18T02:52:05.073Z,12.90
2019-02-18T02:52:39.444Z,12.53
2019-02-18T02:53:13.858Z,12.03
2019-02-18T02:53:48.517Z,12.47
2019-02-18T02:54:22.867Z,12.07
2019-02-18T02:54:57.439Z,12.10
2019-02-18T02:55:31.778Z,12.87
2019-02-18T02:56:06.137Z,12.57
2019-02-18T02:56:40.727Z,13.10
2019-02-18T02:57:15.091Z,11.70
2019-02-18T02:57:49.761Z,11.80
2019-02-18T02:58:24.111Z,11.47
2019-02-18T02:58:58.483Z,12.37
2019-02-18T02:59:32.880Z,12.73
2019-02-18T03:00:08.451Z,12.53
2019-02-18T03:00:42.797Z,13.07
2019-02-18T03:01:17.192Z,12.73
2019-02-18T03:01:51.568Z,13.67
2019-02-18T03:02:25.927Z,13.07
2019-02-18T03:03:00.840Z,13.00
2019-02-18T03:03:35.206Z,12.57
2019-02-18T03:04:09.815Z,12.93
2019-02-18T03:04:44.725Z,13.30
2019-02-18T03:05:19.388Z,13.07
2019-02-18T03:05:54.048Z,14.00
2019-02-18T03:06:28.697Z,14.07
2019-02-18T03:07:03.423Z,12.87
2019-02-18T03:07:37.757Z,12.40
2019-02-18T03:08:19.784Z,12.27
2019-02-18T03:08:48.242Z,12.90
2019-02-18T03:09:22.882Z,13.33
2019-02-18T03:09:57.481Z,13.17
2019-02-18T03:10:31.830Z,13.20
2019-02-18T03:11:06.207Z,12.47
2019-02-18T03:11:40.852Z,13.27
2019-02-18T03:12:15.221Z,13.17
2019-02-18T03:12:50.288Z,14.60
2019-02-18T03:13:24.989Z,13.30
2019-02-18T03:13:59.331Z,13.53
2019-02-18T03:14:33.693Z,13.23
2019-02-18T03:15:08.041Z,12.77
2019-02-18T03:15:42.387Z,13.50
2019-02-18T03:16:16.999Z,14.07
2019-02-18T03:16:51.618Z,13.33
2019-02-18T03:17:25.973Z,12.80
2019-02-18T03:18:00.319Z,13.43
2019-02-18T03:18:34.688Z,12.50
2019-02-18T03:19:09.062Z,13.57
2019-02-18T03:19:44.011Z,13.50
2019-02-18T03:20:18.687Z,13.90
2019-02-18T03:20:53.118Z,13.33
2019-02-18T03:21:27.471Z,14.00
2019-02-18T03:22:02.091Z,12.70
2019-02-18T03:22:36.427Z,13.30
2019-02-18T03:23:11.033Z,13.47
2019-02-18T03:23:45.456Z,12.80
2019-02-18T03:24:19.799Z,12.83
2019-02-18T03:25:17.801Z,14.03
2019-02-18T03:25:53.857Z,13.13
2019-02-18T03:26:28.468Z,13.43
2019-02-18T03:27:03.106Z,13.30
2019-02-18T03:27:37.783Z,13.13
2019-02-18T03:28:25.840Z,13.33
2019-02-18T03:29:52.044Z,13.00
2019-02-18T03:30:36.378Z,12.80
2019-02-18T03:31:18.728Z,13.43
2019-02-18T03:31:53.088Z,14.30
2019-02-18T03:32:28.093Z,14.20
2019-02-18T03:33:02.775Z,13.97
2019-02-18T03:33:40.551Z,13.43
2019-02-18T03:34:43.406Z,13.53
2019-02-18T03:35:18.166Z,13.23
2019-02-18T03:35:52.578Z,13.33
2019-02-18T03:36:26.916Z,13.37
2019-02-18T03:37:01.276Z,13.77
2019-02-18T03:37:36.167Z,13.53
2019-02-18T03:38:10.753Z,12.80
2019-02-18T03:38:45.374Z,13.83
2019-02-18T03:39:20.322Z,13.90
2019-02-18T03:39:54.731Z,14.20
2019-02-18T03:40:29.594Z,13.57
2019-02-18T03:41:03.958Z,12.80
2019-02-18T03:41:40.898Z,14.23
2019-02-18T03:42:14.366Z,13.23
2019-02-18T03:42:48.732Z,13.67
2019-02-18T03:43:23.075Z,13.27
2019-02-18T03:43:57.481Z,13.33
2019-02-18T03:44:32.403Z,13.27
2019-02-18T03:45:06.857Z,12.70
2019-02-18T03:45:41.573Z,13.90
2019-02-18T03:46:16.063Z,13.83
2019-02-18T03:46:51.365Z,13.97
2019-02-18T03:47:25.691Z,13.70
2019-02-18T03:48:00.051Z,12.87
2019-02-18T03:48:34.392Z,14.37
2019-02-18T03:49:09.296Z,13.80
2019-02-18T03:49:43.617Z,14.30
2019-02-18T03:50:18.284Z,14.07
2019-02-18T03:50:53.164Z,14.07
2019-02-18T03:51:27.538Z,14.70
2019-02-18T03:52:01.889Z,14.03
2019-02-18T03:52:36.234Z,14.73
2019-02-18T03:53:10.843Z,13.73
2019-02-18T03:53:45.565Z,13.93
2019-02-18T03:54:19.980Z,14.23
2019-02-18T03:54:54.356Z,14.17
2019-02-18T03:55:28.736Z,14.23
2019-02-18T03:56:03.043Z,13.90
2019-02-18T03:56:37.383Z,14.17
2019-02-18T03:57:12.373Z,13.53
2019-02-18T03:57:46.727Z,14.13
2019-02-18T03:58:21.340Z,14.97
2019-02-18T03:58:55.794Z,14.50
2019-02-18T03:59:30.211Z,14.70
2019-02-18T04:00:05.294Z,14.37
2019-02-18T04:00:39.893Z,13.23
2019-02-18T04:01:14.278Z,14.43
2019-02-18T04:01:49.145Z,13.87
2019-02-18T04:02:23.772Z,12.87
2019-02-18T04:02:58.312Z,13.63
2019-02-18T04:03:32.643Z,13.33
2019-02-18T04:04:07.040Z,13.33
2019-02-18T04:04:41.380Z,13.60
2019-02-18T04:05:16.043Z,13.70
2019-02-18T04:05:50.482Z,14.43
2019-02-18T04:06:24.861Z,13.93
2019-02-18T04:06:59.821Z,13.93
2019-02-18T04:07:34.445Z,13.90
2019-02-18T04:08:08.837Z,12.93
2019-02-18T04:08:43.511Z,13.23
2019-02-18T04:09:18.308Z,13.37
2019-02-18T04:09:52.672Z,14.27
2019-02-18T04:10:27.034Z,12.80
2019-02-18T04:11:01.371Z,12.90
2019-02-18T04:11:35.691Z,13.40
2019-02-18T04:12:10.043Z,12.20
2019-02-18T04:12:44.500Z,13.13
2019-02-18T04:13:18.889Z,13.30
2019-02-18T04:13:53.507Z,14.10
2019-02-18T04:14:27.874Z,12.73
2019-02-18T04:15:02.505Z,13.67
2019-02-18T04:15:37.368Z,12.37
2019-02-18T04:16:11.739Z,13.47
2019-02-18T04:16:46.365Z,11.83
2019-02-18T04:17:20.937Z,12.67
2019-02-18T04:17:55.302Z,12.60
2019-02-18T04:18:29.678Z,12.73
2019-02-18T04:19:04.264Z,12.50
2019-02-18T04:19:38.583Z,13.63
2019-02-18T04:20:12.925Z,12.67
2019-02-18T04:20:47.338Z,12.47
2019-02-18T04:21:22.130Z,13.00
2019-02-18T04:21:56.477Z,12.83
2019-02-18T04:22:30.826Z,12.40
2019-02-18T04:23:05.426Z,12.67
2019-02-18T04:23:40.314Z,12.03
2019-02-18T04:24:15.069Z,13.23
2019-02-18T04:24:49.783Z,12.23
2019-02-18T04:25:24.370Z,12.73
2019-02-18T04:25:59.277Z,12.23
2019-02-18T04:26:33.855Z,13.20
2019-02-18T04:27:08.453Z,11.93
2019-02-18T04:27:43.032Z,12.50
2019-02-18T04:28:18.025Z,12.47
2019-02-18T04:28:52.654Z,12.33
2019-02-18T04:29:27.260Z,12.10
2019-02-18T04:30:01.605Z,12.40
2019-02-18T04:30:35.935Z,12.47
2019-02-18T04:31:10.309Z,11.63
2019-02-18T04:31:44.914Z,12.53
2019-02-18T04:32:19.283Z,12.47
2019-02-18T04:32:53.635Z,11.30
2019-02-18T04:33:28.258Z,12.53
2019-02-18T04:34:02.918Z,10.93
2019-02-18T04:34:37.261Z,12.37
2019-02-18T04:35:11.589Z,12.20
2019-02-18T04:35:46.317Z,12.07
2019-02-18T04:36:21.317Z,11.83
2019-02-18T04:36:55.913Z,12.50
2019-02-18T04:37:30.277Z,11.57
2019-02-18T04:38:04.949Z,12.43
2019-02-18T04:38:39.701Z,12.57
2019-02-18T04:39:14.414Z,12.17
2019-02-18T04:39:48.843Z,13.00
2019-02-18T04:40:23.223Z,12.33
2019-02-18T04:40:57.637Z,12.37
2019-02-18T04:41:32.002Z,11.47
2019-02-18T04:42:06.337Z,12.57
2019-02-18T04:42:41.063Z,11.67
2019-02-18T04:43:15.398Z,11.97
2019-02-18T04:43:50.037Z,12.33
2019-02-18T04:44:24.384Z,12.33
2019-02-18T04:44:58.998Z,12.90
2019-02-18T04:45:33.343Z,11.50
2019-02-18T04:46:07.782Z,11.03
2019-02-18T04:46:42.153Z,10.97
2019-02-18T04:47:17.113Z,11.60
2019-02-18T04:47:52.031Z,12.00
2019-02-18T04:48:26.652Z,11.77
2019-02-18T04:49:00.996Z,11.57
2019-02-18T04:49:35.352Z,11.13
2019-02-18T04:50:09.742Z,12.20
2019-02-18T04:50:44.624Z,11.80
2019-02-18T04:51:19.124Z,10.63
2019-02-18T04:51:53.784Z,11.77
2019-02-18T04:52:28.141Z,11.77
2019-02-18T04:53:02.735Z,11.20
2019-02-18T04:53:37.109Z,12.00
2019-02-18T04:54:11.470Z,11.90
2019-02-18T04:54:45.938Z,10.50
2019-02-18T04:55:20.599Z,11.90
2019-02-18T04:55:55.284Z,11.50
2019-02-18T04:56:29.633Z,11.47
2019-02-18T04:57:04.222Z,11.60
2019-02-18T04:57:38.819Z,11.13
2019-02-18T04:58:13.161Z,11.30
2019-02-18T04:58:47.644Z,10.97
2019-02-18T04:59:22.318Z,11.60
2019-02-18T04:59:56.996Z,12.07
2019-02-18T05:00:31.341Z,11.00
2019-02-18T05:01:05.953Z,11.50
2019-02-18T05:01:41.178Z,11.07
2019-02-18T05:02:15.543Z,11.47
2019-02-18T05:02:49.894Z,11.07
2019-02-18T05:03:24.699Z,12.07
2019-02-18T05:03:59.084Z,11.37
2019-02-18T05:04:33.638Z,11.47
2019-02-18T05:05:07.993Z,11.03
2019-02-18T05:05:42.404Z,11.43
2019-02-18T05:06:17.113Z,11.90
2019-02-18T05:06:52.102Z,11.20
2019-02-18T05:07:26.457Z,11.70
2019-02-18T05:08:01.150Z,13.07
2019-02-18T05:08:35.498Z,13.23
2019-02-18T05:09:10.420Z,13.00
2019-02-18T05:09:44.880Z,11.70
2019-02-18T05:10:19.505Z,12.10
2019-02-18T05:10:53.868Z,13.40
2019-02-18T05:11:28.302Z,11.67
2019-02-18T05:12:03.001Z,11.50
2019-02-18T05:12:37.699Z,12.33
2019-02-18T05:13:12.030Z,12.30
2019-02-18T05:13:46.421Z,11.93
2019-02-18T05:14:21.108Z,11.80
2019-02-18T05:14:55.714Z,12.47
2019-02-18T05:15:30.577Z,11.63
2019-02-18T05:16:05.521Z,12.43
2019-02-18T05:16:40.173Z,11.67
2019-02-18T05:17:14.823Z,11.87
2019-02-18T05:17:49.256Z,11.77
2019-02-18T05:18:23.619Z,11.90
2019-02-18T05:18:58.236Z,12.37
2019-02-18T05:19:32.593Z,12.50
2019-02-18T05:20:07.071Z,12.80
2019-02-18T05:20:41.413Z,12.93
2019-02-18T05:21:15.826Z,12.73
2019-02-18T05:21:50.609Z,11.87
2019-02-18T05:22:25.428Z,12.57
2019-02-18T05:22:59.713Z,11.97
2019-02-18T05:23:34.078Z,12.10
2019-02-18T05:24:08.434Z,12.77
2019-02-18T05:24:43.034Z,12.47
2019-02-18T05:25:17.454Z,12.40
2019-02-18T05:25:51.806Z,12.87
2019-02-18T05:26:26.713Z,11.43
2019-02-18T05:27:01.475Z,12.33
2019-02-18T05:27:36.106Z,12.73
2019-02-18T05:28:10.693Z,13.17
2019-02-18T05:28:45.719Z,12.43
2019-02-18T05:29:20.121Z,12.47
2019-02-18T05:29:54.463Z,13.37
2019-02-18T05:30:29.585Z,14.17
2019-02-18T05:31:04.294Z,13.50
2019-02-18T05:31:38.673Z,14.23
2019-02-18T05:32:13.055Z,13.23
2019-02-18T05:32:47.454Z,14.17
2019-02-18T05:33:21.932Z,13.70
2019-02-18T05:33:56.271Z,14.17
2019-02-18T05:34:30.616Z,13.77
2019-02-18T05:35:05.140Z,14.10
2019-02-18T05:35:39.749Z,13.47
2019-02-18T05:36:14.117Z,13.43
2019-02-18T05:36:48.761Z,13.90
2019-02-18T05:37:23.498Z,13.93
2019-02-18T05:37:58.087Z,13.57
2019-02-18T05:38:32.430Z,13.80
2019-02-18T05:39:17.571Z,14.17
2019-02-18T05:39:44.341Z,12.90
2019-02-18T05:40:18.965Z,13.57
2019-02-18T05:40:53.355Z,13.83
2019-02-18T05:41:27.712Z,13.07
2019-02-18T05:42:02.081Z,13.93
2019-02-18T05:42:36.421Z,13.23
2019-02-18T05:43:11.029Z,13.80
2019-02-18T05:43:45.381Z,13.37
2019-02-18T05:44:19.745Z,13.73
2019-02-18T05:44:54.105Z,13.37
2019-02-18T05:45:29.025Z,13.50
2019-02-18T05:46:03.359Z,13.33
2019-02-18T05:46:37.707Z,13.33
2019-02-18T05:47:12.097Z,14.20
2019-02-18T05:47:46.484Z,13.57
2019-02-18T05:48:21.090Z,13.07
2019-02-18T05:48:55.462Z,14.67
2019-02-18T05:49:29.873Z,13.47
2019-02-18T05:50:04.319Z,13.97
2019-02-18T05:50:38.941Z,13.37
2019-02-18T05:51:13.539Z,13.30
2019-02-18T05:51:48.159Z,13.93
2019-02-18T05:52:22.597Z,13.90
2019-02-18T05:52:57.466Z,13.13
2019-02-18T05:53:31.905Z,14.17
2019-02-18T05:54:06.250Z,14.20
2019-02-18T05:54:40.577Z,13.77
2019-02-18T05:55:14.973Z,13.17
2019-02-18T05:55:49.618Z,13.23
2019-02-18T05:56:24.249Z,13.97
2019-02-18T05:56:58.652Z,13.80
2019-02-18T05:57:32.979Z,13.53
2019-02-18T05:58:07.332Z,14.50
2019-02-18T05:58:41.939Z,14.73
2019-02-18T05:59:16.329Z,14.60
2019-02-18T05:59:51.014Z,14.17
2019-02-18T06:00:25.646Z,14.27
2019-02-18T06:00:59.975Z,14.63
2019-02-18T06:01:34.402Z,15.03
2019-02-18T06:02:09.042Z,15.33
2019-02-18T06:02:43.386Z,14.50
2019-02-18T06:03:17.760Z,14.93
2019-02-18T06:03:52.351Z,15.57
2019-02-18T06:04:26.711Z,15.63
2019-02-18T06:05:01.333Z,15.23
2019-02-18T06:05:35.772Z,15.90
2019-02-18T06:06:10.117Z,15.33
2019-02-18T06:06:44.757Z,15.40
2019-02-18T06:07:19.330Z,14.77
2019-02-18T06:07:53.729Z,15.00
2019-02-18T06:08:28.365Z,15.00
2019-02-18T06:09:04.021Z,15.13
2019-02-18T06:09:38.413Z,15.07
2019-02-18T06:10:14.227Z,15.43
2019-02-18T06:10:49.725Z,15.13
2019-02-18T06:11:24.386Z,15.43
2019-02-18T06:11:59.002Z,15.13
2019-02-18T06:12:33.978Z,15.53
2019-02-18T06:13:08.326Z,14.90
2019-02-18T06:13:42.918Z,15.57
2019-02-18T06:14:17.579Z,15.47
2019-02-18T06:14:52.286Z,14.37
2019-02-18T06:15:27.213Z,15.00
2019-02-18T06:16:01.587Z,15.53
2019-02-18T06:16:36.203Z,15.50
2019-02-18T06:17:10.875Z,16.23
2019-02-18T06:17:45.564Z,15.87
2019-02-18T06:18:20.001Z,14.87
2019-02-18T06:18:55.591Z,14.90
2019-02-18T06:19:30.239Z,14.93
2019-02-18T06:20:05.142Z,15.47
2019-02-18T06:20:39.808Z,15.00
2019-02-18T06:21:14.173Z,14.97
2019-02-18T06:21:48.602Z,15.23
2019-02-18T06:22:23.027Z,15.20
2019-02-18T06:22:57.685Z,13.97
2019-02-18T06:23:32.281Z,14.20
2019-02-18T06:24:06.666Z,15.40
2019-02-18T06:24:41.326Z,15.17
2019-02-18T06:25:15.753Z,15.43
2019-02-18T06:25:50.179Z,15.37
2019-02-18T06:26:24.652Z,15.20
2019-02-18T06:26:59.005Z,15.47
2019-02-18T06:27:33.376Z,15.00
2019-02-18T06:28:08.013Z,14.93
2019-02-18T06:28:42.361Z,15.03
2019-02-18T06:29:16.981Z,14.70
2019-02-18T06:29:51.648Z,14.63
2019-02-18T06:30:26.536Z,14.53
2019-02-18T06:31:01.408Z,14.67
2019-02-18T06:31:36.060Z,15.33
2019-02-18T06:32:10.414Z,15.33
2019-02-18T06:32:44.934Z,15.80
2019-02-18T06:33:19.962Z,15.70
2019-02-18T06:33:54.473Z,15.03
2019-02-18T06:34:29.190Z,15.83
2019-02-18T06:35:04.169Z,14.60
2019-02-18T06:35:38.516Z,14.83
2019-02-18T06:36:13.171Z,15.00
2019-02-18T06:36:47.556Z,14.93
2019-02-18T06:37:22.102Z,15.07
2019-02-18T06:37:56.544Z,15.57
2019-02-18T06:38:31.025Z,15.20
2019-02-18T06:39:06.528Z,16.17
2019-02-18T06:39:42.046Z,15.77
2019-02-18T06:40:16.618Z,15.20
2019-02-18T06:40:51.246Z,14.77
2019-02-18T06:41:25.604Z,14.70
2019-02-18T06:42:00.264Z,15.20
2019-02-18T06:42:34.635Z,15.03
2019-02-18T06:43:09.368Z,15.10
2019-02-18T06:43:44.128Z,15.17
2019-02-18T06:44:21.595Z,15.50
2019-02-18T06:45:26.864Z,15.07
2019-02-18T06:46:34.888Z,14.67
2019-02-18T06:47:12.746Z,14.37
2019-02-18T06:47:47.460Z,14.63
2019-02-18T06:48:28.598Z,15.03
2019-02-18T06:49:12.158Z,14.53
2019-02-18T06:49:46.548Z,15.50
2019-02-18T06:50:20.932Z,14.73
2019-02-18T06:50:55.320Z,15.67
2019-02-18T06:51:30.282Z,14.67
2019-02-18T06:52:04.600Z,15.37
2019-02-18T06:52:38.962Z,14.10
2019-02-18T06:53:13.340Z,14.73
2019-02-18T06:53:47.698Z,15.47
2019-02-18T06:54:22.064Z,14.37
2019-02-18T06:54:56.435Z,15.37
2019-02-18T06:55:30.770Z,15.33
2019-02-18T06:56:05.117Z,15.53
2019-02-18T06:57:01.228Z,15.97
2019-02-18T06:57:58.269Z,15.13
2019-02-18T06:58:54.259Z,15.33
2019-02-18T06:59:34.933Z,14.83
2019-02-18T07:00:25.118Z,14.60
2019-02-18T07:01:03.644Z,15.43
2019-02-18T07:01:43.552Z,14.93
2019-02-18T07:02:39.928Z,15.40
2019-02-18T07:03:20.820Z,15.50
2019-02-18T07:04:15.541Z,14.93
2019-02-18T07:05:02.914Z,15.27
2019-02-18T07:05:55.304Z,15.30
2019-02-18T07:06:49.787Z,15.37
2019-02-18T07:07:42.346Z,16.17
2019-02-18T07:08:39.710Z,15.20
2019-02-18T07:09:24.605Z,15.83
2019-02-18T07:10:06.930Z,14.67
2019-02-18T07:11:12.400Z,14.70
2019-02-18T07:11:51.661Z,14.47
2019-02-18T07:12:31.286Z,15.03
2019-02-18T07:13:05.699Z,15.13
2019-02-18T07:13:40.318Z,16.13
2019-02-18T07:14:15.283Z,15.53
2019-02-18T07:14:49.674Z,16.30
2019-02-18T07:15:24.100Z,16.17
2019-02-18T07:15:58.550Z,16.40
2019-02-18T07:16:32.948Z,15.40
2019-02-18T07:17:07.276Z,16.03
2019-02-18T07:17:41.650Z,15.03
2019-02-18T07:18:16.058Z,15.03
2019-02-18T07:18:50.823Z,15.40
2019-02-18T07:19:25.538Z,15.57
2019-02-18T07:20:00.514Z,14.90
2019-02-18T07:20:34.852Z,15.70
2019-02-18T07:21:09.199Z,15.13
2019-02-18T07:21:43.565Z,15.50
2019-02-18T07:22:17.949Z,16.37
2019-02-18T07:22:52.435Z,14.40
2019-02-18T07:23:27.164Z,15.00
2019-02-18T07:24:01.772Z,14.27
2019-02-18T07:24:36.379Z,15.77
2019-02-18T07:25:11.311Z,16.00
2019-02-18T07:25:46.336Z,15.23
2019-02-18T07:26:20.841Z,15.40
2019-02-18T07:26:55.283Z,15.40
2019-02-18T07:27:29.624Z,14.87
2019-02-18T07:28:04.544Z,15.30
2019-02-18T07:28:38.991Z,14.47
2019-02-18T07:29:13.606Z,15.17
2019-02-18T07:29:48.647Z,14.80
2019-02-18T07:30:23.460Z,15.10
2019-02-18T07:30:57.994Z,15.47
2019-02-18T07:31:32.676Z,15.30
2019-02-18T07:32:07.043Z,15.40
2019-02-18T07:32:41.413Z,15.53
2019-02-18T07:33:16.181Z,15.37
2019-02-18T07:33:50.900Z,15.33
2019-02-18T07:34:25.341Z,14.50
2019-02-18T07:34:59.986Z,15.90